sensor_id;sensor_type;location;lat;lon;timestamp;P1;durP1;ratioP1;P2;durP2;ratioP2
73515;SDS011;61763;51.416;5.442;2023-02-28T00:00:22;5.55;;;3.42;;
73515;SDS011;61763;51.416;5.442;2023-02-28T00:02:49;10.98;;;4.40;;
73515;SDS011;61763;51.416;5.442;2023-02-28T00:05:17;7.30;;;3.83;;
73515;SDS011;61763;51.416;5.442;2023-02-28T00:07:43;9.07;;;3.08;;
73515;SDS011;61763;51.416;5.442;2023-02-28T00:10:10;8.98;;;3.03;;
73515;SDS011;61763;51.416;5.442;2023-02-28T00:12:39;9.65;;;4.28;;
73515;SDS011;61763;51.416;5.442;2023-02-28T00:15:06;8.43;;;3.10;;
73515;SDS011;61763;51.416;5.442;2023-02-28T00:17:34;8.32;;;3.50;;
73515;SDS011;61763;51.416;5.442;2023-02-28T00:20:00;7.45;;;2.65;;
73515;SDS011;61763;51.416;5.442;2023-02-28T00:22:29;6.80;;;3.58;;
73515;SDS011;61763;51.416;5.442;2023-02-28T00:24:55;6.72;;;3.67;;
73515;SDS011;61763;51.416;5.442;2023-02-28T00:27:20;7.68;;;4.22;;
73515;SDS011;61763;51.416;5.442;2023-02-28T00:29:46;5.85;;;3.08;;
73515;SDS011;61763;51.416;5.442;2023-02-28T00:32:11;8.65;;;4.28;;
73515;SDS011;61763;51.416;5.442;2023-02-28T00:34:37;7.65;;;3.70;;
73515;SDS011;61763;51.416;5.442;2023-02-28T00:37:06;7.43;;;3.20;;
73515;SDS011;61763;51.416;5.442;2023-02-28T00:39:34;7.32;;;3.90;;
73515;SDS011;61763;51.416;5.442;2023-02-28T00:42:01;12.95;;;3.45;;
73515;SDS011;61763;51.416;5.442;2023-02-28T00:44:27;7.70;;;3.58;;
73515;SDS011;61763;51.416;5.442;2023-02-28T00:46:53;8.75;;;4.38;;
73515;SDS011;61763;51.416;5.442;2023-02-28T00:49:19;8.30;;;3.42;;
73515;SDS011;61763;51.416;5.442;2023-02-28T00:51:45;6.53;;;3.90;;
73515;SDS011;61763;51.416;5.442;2023-02-28T00:54:11;6.60;;;3.20;;
73515;SDS011;61763;51.416;5.442;2023-02-28T00:56:36;7.03;;;3.00;;
73515;SDS011;61763;51.416;5.442;2023-02-28T00:59:02;6.43;;;2.83;;
73515;SDS011;61763;51.416;5.442;2023-02-28T01:01:27;6.05;;;1.92;;
73515;SDS011;61763;51.416;5.442;2023-02-28T01:03:53;8.32;;;3.92;;
73515;SDS011;61763;51.416;5.442;2023-02-28T01:06:18;5.78;;;3.50;;
73515;SDS011;61763;51.416;5.442;2023-02-28T01:08:43;6.70;;;3.58;;
73515;SDS011;61763;51.416;5.442;2023-02-28T01:11:12;6.63;;;3.75;;
73515;SDS011;61763;51.416;5.442;2023-02-28T01:13:40;7.95;;;3.92;;
73515;SDS011;61763;51.416;5.442;2023-02-28T01:16:08;8.48;;;3.53;;
73515;SDS011;61763;51.416;5.442;2023-02-28T01:18:33;7.95;;;3.75;;
73515;SDS011;61763;51.416;5.442;2023-02-28T01:21:06;7.95;;;3.28;;
73515;SDS011;61763;51.416;5.442;2023-02-28T01:23:33;9.55;;;4.50;;
73515;SDS011;61763;51.416;5.442;2023-02-28T01:26:13;7.75;;;3.08;;
73515;SDS011;61763;51.416;5.442;2023-02-28T01:28:44;7.80;;;4.38;;
73515;SDS011;61763;51.416;5.442;2023-02-28T01:31:10;8.82;;;4.00;;
73515;SDS011;61763;51.416;5.442;2023-02-28T01:33:36;8.18;;;3.25;;
73515;SDS011;61763;51.416;5.442;2023-02-28T01:36:07;9.73;;;3.55;;
73515;SDS011;61763;51.416;5.442;2023-02-28T01:38:35;5.75;;;2.83;;
73515;SDS011;61763;51.416;5.442;2023-02-28T01:41:00;7.60;;;3.08;;
73515;SDS011;61763;51.416;5.442;2023-02-28T01:43:27;8.20;;;4.63;;
73515;SDS011;61763;51.416;5.442;2023-02-28T01:45:55;9.00;;;3.75;;
73515;SDS011;61763;51.416;5.442;2023-02-28T01:48:23;7.20;;;4.18;;
73515;SDS011;61763;51.416;5.442;2023-02-28T01:50:52;8.10;;;3.50;;
73515;SDS011;61763;51.416;5.442;2023-02-28T01:53:20;7.65;;;3.88;;
73515;SDS011;61763;51.416;5.442;2023-02-28T01:55:51;9.65;;;2.53;;
73515;SDS011;61763;51.416;5.442;2023-02-28T01:58:18;12.80;;;4.63;;
73515;SDS011;61763;51.416;5.442;2023-02-28T02:00:44;7.25;;;4.55;;
73515;SDS011;61763;51.416;5.442;2023-02-28T02:03:12;7.85;;;2.80;;
73515;SDS011;61763;51.416;5.442;2023-02-28T02:05:40;9.07;;;3.03;;
73515;SDS011;61763;51.416;5.442;2023-02-28T02:08:12;9.10;;;3.67;;
73515;SDS011;61763;51.416;5.442;2023-02-28T02:10:43;10.30;;;4.38;;
73515;SDS011;61763;51.416;5.442;2023-02-28T02:41:36;7.55;;;3.80;;
73515;SDS011;61763;51.416;5.442;2023-02-28T02:44:10;9.57;;;4.57;;
73515;SDS011;61763;51.416;5.442;2023-02-28T02:46:41;7.70;;;2.63;;
73515;SDS011;61763;51.416;5.442;2023-02-28T02:49:10;7.05;;;3.47;;
73515;SDS011;61763;51.416;5.442;2023-02-28T02:51:47;7.50;;;4.25;;
73515;SDS011;61763;51.416;5.442;2023-02-28T02:54:16;7.22;;;3.50;;
73515;SDS011;61763;51.416;5.442;2023-02-28T02:56:46;6.63;;;2.90;;
73515;SDS011;61763;51.416;5.442;2023-02-28T02:59:13;7.57;;;3.38;;
73515;SDS011;61763;51.416;5.442;2023-02-28T03:01:47;5.78;;;2.85;;
73515;SDS011;61763;51.416;5.442;2023-02-28T03:04:19;6.80;;;2.53;;
73515;SDS011;61763;51.416;5.442;2023-02-28T03:06:46;10.20;;;3.88;;
73515;SDS011;61763;51.416;5.442;2023-02-28T03:09:11;5.13;;;2.45;;
73515;SDS011;61763;51.416;5.442;2023-02-28T03:11:37;7.90;;;2.63;;
73515;SDS011;61763;51.416;5.442;2023-02-28T03:16:36;9.32;;;3.17;;
73515;SDS011;61763;51.416;5.442;2023-02-28T03:25:05;7.68;;;3.90;;
73515;SDS011;61763;51.416;5.442;2023-02-28T03:27:36;9.65;;;4.28;;
73515;SDS011;61763;51.416;5.442;2023-02-28T03:35:27;3.85;;;2.17;;
73515;SDS011;61763;51.416;5.442;2023-02-28T03:40:58;6.38;;;2.72;;
73515;SDS011;61763;51.416;5.442;2023-02-28T03:43:32;7.28;;;3.42;;
73515;SDS011;61763;51.416;5.442;2023-02-28T03:46:01;6.03;;;2.15;;
73515;SDS011;61763;51.416;5.442;2023-02-28T03:48:32;6.78;;;3.55;;
73515;SDS011;61763;51.416;5.442;2023-02-28T03:51:05;5.15;;;2.88;;
73515;SDS011;61763;51.416;5.442;2023-02-28T03:53:35;6.20;;;3.85;;
73515;SDS011;61763;51.416;5.442;2023-02-28T03:56:08;7.78;;;3.38;;
73515;SDS011;61763;51.416;5.442;2023-02-28T03:58:42;7.75;;;3.30;;
73515;SDS011;61763;51.416;5.442;2023-02-28T04:03:45;8.70;;;4.03;;
73515;SDS011;61763;51.416;5.442;2023-02-28T04:06:18;7.65;;;3.55;;
73515;SDS011;61763;51.416;5.442;2023-02-28T04:08:45;5.45;;;2.95;;
73515;SDS011;61763;51.416;5.442;2023-02-28T04:11:25;9.15;;;3.38;;
73515;SDS011;61763;51.416;5.442;2023-02-28T04:13:58;6.55;;;2.47;;
73515;SDS011;61763;51.416;5.442;2023-02-28T04:16:23;6.22;;;3.70;;
73515;SDS011;61763;51.416;5.442;2023-02-28T04:18:48;7.10;;;3.33;;
73515;SDS011;61763;51.416;5.442;2023-02-28T04:21:14;5.75;;;2.38;;
73515;SDS011;61763;51.416;5.442;2023-02-28T04:23:39;5.78;;;2.95;;
73515;SDS011;61763;51.416;5.442;2023-02-28T04:26:05;5.97;;;3.47;;
73515;SDS011;61763;51.416;5.442;2023-02-28T04:28:31;9.02;;;3.13;;
73515;SDS011;61763;51.416;5.442;2023-02-28T04:30:58;6.95;;;2.75;;
73515;SDS011;61763;51.416;5.442;2023-02-28T04:33:27;6.80;;;4.40;;
73515;SDS011;61763;51.416;5.442;2023-02-28T04:36:03;7.18;;;2.63;;
73515;SDS011;61763;51.416;5.442;2023-02-28T04:38:33;3.22;;;1.45;;
73515;SDS011;61763;51.416;5.442;2023-02-28T04:41:00;7.97;;;3.63;;
73515;SDS011;61763;51.416;5.442;2023-02-28T04:43:26;7.25;;;2.33;;
73515;SDS011;61763;51.416;5.442;2023-02-28T04:45:53;6.63;;;2.38;;
73515;SDS011;61763;51.416;5.442;2023-02-28T04:48:21;5.72;;;2.17;;
73515;SDS011;61763;51.416;5.442;2023-02-28T04:50:50;7.53;;;2.53;;
73515;SDS011;61763;51.416;5.442;2023-02-28T04:53:18;5.85;;;2.28;;
73515;SDS011;61763;51.416;5.442;2023-02-28T04:55:44;9.75;;;4.57;;
73515;SDS011;61763;51.416;5.442;2023-02-28T04:58:10;8.10;;;2.83;;
73515;SDS011;61763;51.416;5.442;2023-02-28T05:00:37;11.00;;;2.95;;
73515;SDS011;61763;51.416;5.442;2023-02-28T05:03:02;5.93;;;3.25;;
73515;SDS011;61763;51.416;5.442;2023-02-28T05:05:27;7.25;;;2.42;;
73515;SDS011;61763;51.416;5.442;2023-02-28T05:07:54;6.65;;;2.67;;
73515;SDS011;61763;51.416;5.442;2023-02-28T05:10:20;7.72;;;2.80;;
73515;SDS011;61763;51.416;5.442;2023-02-28T05:12:47;6.25;;;2.92;;
73515;SDS011;61763;51.416;5.442;2023-02-28T05:15:13;7.97;;;3.38;;
73515;SDS011;61763;51.416;5.442;2023-02-28T05:17:40;8.07;;;2.40;;
73515;SDS011;61763;51.416;5.442;2023-02-28T05:20:07;4.80;;;2.00;;
73515;SDS011;61763;51.416;5.442;2023-02-28T05:22:35;11.73;;;3.35;;
73515;SDS011;61763;51.416;5.442;2023-02-28T05:25:02;6.78;;;2.22;;
73515;SDS011;61763;51.416;5.442;2023-02-28T05:27:29;8.82;;;2.63;;
73515;SDS011;61763;51.416;5.442;2023-02-28T05:29:55;5.78;;;2.63;;
73515;SDS011;61763;51.416;5.442;2023-02-28T05:32:21;6.28;;;3.35;;
73515;SDS011;61763;51.416;5.442;2023-02-28T05:34:46;4.35;;;1.90;;
73515;SDS011;61763;51.416;5.442;2023-02-28T05:37:12;8.25;;;2.90;;
73515;SDS011;61763;51.416;5.442;2023-02-28T05:39:38;8.23;;;2.78;;
73515;SDS011;61763;51.416;5.442;2023-02-28T05:42:03;7.13;;;3.35;;
73515;SDS011;61763;51.416;5.442;2023-02-28T05:44:29;5.50;;;2.10;;
73515;SDS011;61763;51.416;5.442;2023-02-28T05:46:55;6.45;;;3.30;;
73515;SDS011;61763;51.416;5.442;2023-02-28T05:49:20;5.80;;;2.03;;
73515;SDS011;61763;51.416;5.442;2023-02-28T05:51:46;6.47;;;2.63;;
73515;SDS011;61763;51.416;5.442;2023-02-28T05:54:11;4.18;;;2.10;;
73515;SDS011;61763;51.416;5.442;2023-02-28T05:56:37;5.32;;;2.00;;
73515;SDS011;61763;51.416;5.442;2023-02-28T05:59:06;7.50;;;2.97;;
73515;SDS011;61763;51.416;5.442;2023-02-28T06:01:49;6.32;;;2.47;;
73515;SDS011;61763;51.416;5.442;2023-02-28T06:04:16;6.07;;;2.75;;
73515;SDS011;61763;51.416;5.442;2023-02-28T06:06:47;6.13;;;3.05;;
73515;SDS011;61763;51.416;5.442;2023-02-28T06:09:13;5.80;;;2.03;;
73515;SDS011;61763;51.416;5.442;2023-02-28T06:11:39;6.72;;;2.42;;
73515;SDS011;61763;51.416;5.442;2023-02-28T06:14:05;5.55;;;2.08;;
73515;SDS011;61763;51.416;5.442;2023-02-28T06:16:34;7.25;;;2.95;;
73515;SDS011;61763;51.416;5.442;2023-02-28T06:19:02;6.63;;;1.77;;
73515;SDS011;61763;51.416;5.442;2023-02-28T06:21:28;7.25;;;3.40;;
73515;SDS011;61763;51.416;5.442;2023-02-28T06:23:55;5.95;;;2.55;;
73515;SDS011;61763;51.416;5.442;2023-02-28T06:26:21;6.60;;;3.05;;
73515;SDS011;61763;51.416;5.442;2023-02-28T06:28:46;5.60;;;2.05;;
73515;SDS011;61763;51.416;5.442;2023-02-28T06:31:15;5.72;;;2.63;;
73515;SDS011;61763;51.416;5.442;2023-02-28T06:33:42;6.32;;;1.77;;
73515;SDS011;61763;51.416;5.442;2023-02-28T06:36:10;6.30;;;2.40;;
73515;SDS011;61763;51.416;5.442;2023-02-28T06:38:37;7.35;;;2.85;;
73515;SDS011;61763;51.416;5.442;2023-02-28T06:41:03;5.82;;;2.80;;
73515;SDS011;61763;51.416;5.442;2023-02-28T06:43:30;4.43;;;1.77;;
73515;SDS011;61763;51.416;5.442;2023-02-28T06:45:57;3.58;;;1.70;;
73515;SDS011;61763;51.416;5.442;2023-02-28T06:48:24;5.65;;;2.28;;
73515;SDS011;61763;51.416;5.442;2023-02-28T06:50:49;7.60;;;2.90;;
73515;SDS011;61763;51.416;5.442;2023-02-28T06:53:15;4.32;;;1.98;;
73515;SDS011;61763;51.416;5.442;2023-02-28T06:55:40;4.75;;;2.13;;
73515;SDS011;61763;51.416;5.442;2023-02-28T06:58:06;4.80;;;2.30;;
73515;SDS011;61763;51.416;5.442;2023-02-28T07:00:44;3.78;;;1.65;;
73515;SDS011;61763;51.416;5.442;2023-02-28T07:03:10;6.35;;;2.15;;
73515;SDS011;61763;51.416;5.442;2023-02-28T07:05:37;3.85;;;1.30;;
73515;SDS011;61763;51.416;5.442;2023-02-28T07:08:04;4.63;;;1.50;;
73515;SDS011;61763;51.416;5.442;2023-02-28T07:10:31;4.13;;;1.42;;
73515;SDS011;61763;51.416;5.442;2023-02-28T07:13:03;3.28;;;1.20;;
73515;SDS011;61763;51.416;5.442;2023-02-28T07:15:29;6.22;;;1.77;;
73515;SDS011;61763;51.416;5.442;2023-02-28T07:17:56;4.68;;;1.08;;
73515;SDS011;61763;51.416;5.442;2023-02-28T07:20:21;4.68;;;1.35;;
73515;SDS011;61763;51.416;5.442;2023-02-28T07:22:48;5.00;;;1.60;;
73515;SDS011;61763;51.416;5.442;2023-02-28T07:25:20;4.30;;;2.50;;
73515;SDS011;61763;51.416;5.442;2023-02-28T07:27:46;3.40;;;1.88;;
73515;SDS011;61763;51.416;5.442;2023-02-28T07:30:12;4.07;;;1.73;;
73515;SDS011;61763;51.416;5.442;2023-02-28T07:32:37;4.55;;;1.90;;
73515;SDS011;61763;51.416;5.442;2023-02-28T07:35:03;4.07;;;1.42;;
73515;SDS011;61763;51.416;5.442;2023-02-28T07:37:28;1.73;;;0.40;;
73515;SDS011;61763;51.416;5.442;2023-02-28T07:39:56;4.03;;;1.90;;
73515;SDS011;61763;51.416;5.442;2023-02-28T07:42:23;4.63;;;1.77;;
73515;SDS011;61763;51.416;5.442;2023-02-28T07:44:48;5.03;;;1.35;;
73515;SDS011;61763;51.416;5.442;2023-02-28T07:47:13;5.00;;;1.10;;
73515;SDS011;61763;51.416;5.442;2023-02-28T07:49:39;1.98;;;1.30;;
73515;SDS011;61763;51.416;5.442;2023-02-28T07:52:05;3.03;;;1.67;;
73515;SDS011;61763;51.416;5.442;2023-02-28T07:54:32;2.65;;;1.27;;
73515;SDS011;61763;51.416;5.442;2023-02-28T07:56:58;4.57;;;1.73;;
73515;SDS011;61763;51.416;5.442;2023-02-28T07:59:24;2.78;;;1.00;;
73515;SDS011;61763;51.416;5.442;2023-02-28T08:01:49;4.20;;;1.70;;
73515;SDS011;61763;51.416;5.442;2023-02-28T08:04:15;3.47;;;1.50;;
73515;SDS011;61763;51.416;5.442;2023-02-28T08:06:42;3.40;;;1.02;;
73515;SDS011;61763;51.416;5.442;2023-02-28T08:09:07;3.97;;;1.20;;
73515;SDS011;61763;51.416;5.442;2023-02-28T08:11:32;2.70;;;0.77;;
73515;SDS011;61763;51.416;5.442;2023-02-28T08:13:58;2.38;;;0.82;;
73515;SDS011;61763;51.416;5.442;2023-02-28T08:16:23;3.55;;;0.80;;
73515;SDS011;61763;51.416;5.442;2023-02-28T08:18:49;3.42;;;1.35;;
73515;SDS011;61763;51.416;5.442;2023-02-28T08:21:16;3.38;;;0.70;;
73515;SDS011;61763;51.416;5.442;2023-02-28T08:23:42;2.33;;;0.57;;
73515;SDS011;61763;51.416;5.442;2023-02-28T08:26:08;2.28;;;0.68;;
73515;SDS011;61763;51.416;5.442;2023-02-28T08:28:34;3.67;;;1.52;;
73515;SDS011;61763;51.416;5.442;2023-02-28T08:30:59;2.38;;;1.42;;
73515;SDS011;61763;51.416;5.442;2023-02-28T08:33:25;4.10;;;1.00;;
73515;SDS011;61763;51.416;5.442;2023-02-28T08:35:53;2.28;;;0.43;;
73515;SDS011;61763;51.416;5.442;2023-02-28T08:38:20;1.63;;;0.40;;
73515;SDS011;61763;51.416;5.442;2023-02-28T08:40:45;2.88;;;0.70;;
73515;SDS011;61763;51.416;5.442;2023-02-28T08:43:10;1.52;;;0.88;;
73515;SDS011;61763;51.416;5.442;2023-02-28T08:45:36;1.98;;;0.50;;
73515;SDS011;61763;51.416;5.442;2023-02-28T08:48:01;3.47;;;1.25;;
73515;SDS011;61763;51.416;5.442;2023-02-28T08:50:27;2.47;;;0.75;;
73515;SDS011;61763;51.416;5.442;2023-02-28T08:52:52;2.63;;;0.63;;
73515;SDS011;61763;51.416;5.442;2023-02-28T08:55:17;2.05;;;0.50;;
73515;SDS011;61763;51.416;5.442;2023-02-28T08:57:43;3.83;;;0.60;;
73515;SDS011;61763;51.416;5.442;2023-02-28T09:00:08;2.22;;;0.50;;
73515;SDS011;61763;51.416;5.442;2023-02-28T09:02:35;1.95;;;0.70;;
73515;SDS011;61763;51.416;5.442;2023-02-28T09:05:01;3.67;;;0.75;;
73515;SDS011;61763;51.416;5.442;2023-02-28T09:07:28;4.85;;;1.35;;
73515;SDS011;61763;51.416;5.442;2023-02-28T09:09:53;1.80;;;0.40;;
73515;SDS011;61763;51.416;5.442;2023-02-28T09:12:22;2.75;;;0.45;;
73515;SDS011;61763;51.416;5.442;2023-02-28T09:14:48;1.40;;;0.20;;
73515;SDS011;61763;51.416;5.442;2023-02-28T09:17:13;1.48;;;0.30;;
73515;SDS011;61763;51.416;5.442;2023-02-28T09:19:38;3.90;;;1.50;;
73515;SDS011;61763;51.416;5.442;2023-02-28T09:22:04;1.40;;;0.75;;
73515;SDS011;61763;51.416;5.442;2023-02-28T09:24:29;1.08;;;0.20;;
73515;SDS011;61763;51.416;5.442;2023-02-28T09:26:56;1.75;;;0.50;;
73515;SDS011;61763;51.416;5.442;2023-02-28T09:29:22;1.45;;;0.40;;
73515;SDS011;61763;51.416;5.442;2023-02-28T09:31:47;3.45;;;0.95;;
73515;SDS011;61763;51.416;5.442;2023-02-28T09:34:13;2.53;;;0.40;;
73515;SDS011;61763;51.416;5.442;2023-02-28T09:36:38;1.60;;;0.60;;
73515;SDS011;61763;51.416;5.442;2023-02-28T09:39:04;1.55;;;0.40;;
73515;SDS011;61763;51.416;5.442;2023-02-28T09:41:31;3.08;;;1.65;;
73515;SDS011;61763;51.416;5.442;2023-02-28T09:44:04;1.27;;;0.32;;
73515;SDS011;61763;51.416;5.442;2023-02-28T09:46:37;1.70;;;0.45;;
73515;SDS011;61763;51.416;5.442;2023-02-28T09:49:08;2.38;;;1.05;;
73515;SDS011;61763;51.416;5.442;2023-02-28T09:54:13;1.90;;;0.68;;
73515;SDS011;61763;51.416;5.442;2023-02-28T09:56:44;1.10;;;0.40;;
73515;SDS011;61763;51.416;5.442;2023-02-28T10:05:08;0.90;;;0.30;;
73515;SDS011;61763;51.416;5.442;2023-02-28T10:15:51;1.15;;;0.30;;
73515;SDS011;61763;51.416;5.442;2023-02-28T10:18:27;1.50;;;0.52;;
73515;SDS011;61763;51.416;5.442;2023-02-28T10:21:04;1.80;;;0.90;;
73515;SDS011;61763;51.416;5.442;2023-02-28T10:23:34;1.98;;;1.15;;
73515;SDS011;61763;51.416;5.442;2023-02-28T10:26:10;2.15;;;0.80;;
73515;SDS011;61763;51.416;5.442;2023-02-28T10:28:38;1.45;;;0.80;;
73515;SDS011;61763;51.416;5.442;2023-02-28T10:31:05;1.10;;;0.15;;
73515;SDS011;61763;51.416;5.442;2023-02-28T10:33:36;1.50;;;0.88;;
73515;SDS011;61763;51.416;5.442;2023-02-28T10:36:03;3.40;;;0.80;;
73515;SDS011;61763;51.416;5.442;2023-02-28T10:41:07;1.13;;;0.50;;
73515;SDS011;61763;51.416;5.442;2023-02-28T10:43:38;1.30;;;0.50;;
73515;SDS011;61763;51.416;5.442;2023-02-28T10:51:07;2.17;;;1.10;;
73515;SDS011;61763;51.416;5.442;2023-02-28T11:01:42;2.22;;;0.20;;
73515;SDS011;61763;51.416;5.442;2023-02-28T11:06:47;1.10;;;0.30;;
73515;SDS011;61763;51.416;5.442;2023-02-28T11:09:23;1.27;;;0.43;;
73515;SDS011;61763;51.416;5.442;2023-02-28T11:11:57;3.38;;;0.80;;
73515;SDS011;61763;51.416;5.442;2023-02-28T11:14:35;1.88;;;0.60;;
73515;SDS011;61763;51.416;5.442;2023-02-28T11:17:13;2.70;;;1.40;;
73515;SDS011;61763;51.416;5.442;2023-02-28T11:19:45;1.98;;;0.70;;
73515;SDS011;61763;51.416;5.442;2023-02-28T11:22:23;1.45;;;0.30;;
73515;SDS011;61763;51.416;5.442;2023-02-28T11:24:53;2.55;;;0.82;;
73515;SDS011;61763;51.416;5.442;2023-02-28T11:27:26;2.00;;;0.95;;
73515;SDS011;61763;51.416;5.442;2023-02-28T11:32:53;3.03;;;1.00;;
73515;SDS011;61763;51.416;5.442;2023-02-28T11:35:23;2.67;;;1.10;;
73515;SDS011;61763;51.416;5.442;2023-02-28T11:37:52;2.17;;;1.13;;
73515;SDS011;61763;51.416;5.442;2023-02-28T11:40:42;3.00;;;0.75;;
73515;SDS011;61763;51.416;5.442;2023-02-28T11:46:00;2.83;;;1.60;;
73515;SDS011;61763;51.416;5.442;2023-02-28T11:48:41;2.65;;;1.10;;
73515;SDS011;61763;51.416;5.442;2023-02-28T11:51:28;1.85;;;1.02;;
73515;SDS011;61763;51.416;5.442;2023-02-28T11:54:12;2.47;;;1.00;;
73515;SDS011;61763;51.416;5.442;2023-02-28T11:56:57;1.58;;;0.30;;
73515;SDS011;61763;51.416;5.442;2023-02-28T12:02:24;3.67;;;1.10;;
73515;SDS011;61763;51.416;5.442;2023-02-28T12:16:52;3.83;;;1.48;;
73515;SDS011;61763;51.416;5.442;2023-02-28T12:22:28;2.45;;;1.45;;
73515;SDS011;61763;51.416;5.442;2023-02-28T12:25:13;3.17;;;0.65;;
73515;SDS011;61763;51.416;5.442;2023-02-28T12:28:01;2.40;;;0.88;;
73515;SDS011;61763;51.416;5.442;2023-02-28T12:30:31;3.08;;;1.38;;
73515;SDS011;61763;51.416;5.442;2023-02-28T12:33:04;1.52;;;0.73;;
73515;SDS011;61763;51.416;5.442;2023-02-28T12:35:35;1.90;;;0.47;;
73515;SDS011;61763;51.416;5.442;2023-02-28T12:38:10;6.72;;;2.10;;
73515;SDS011;61763;51.416;5.442;2023-02-28T12:40:44;3.75;;;0.80;;
73515;SDS011;61763;51.416;5.442;2023-02-28T12:43:26;1.92;;;0.70;;
73515;SDS011;61763;51.416;5.442;2023-02-28T12:46:02;2.92;;;0.80;;
73515;SDS011;61763;51.416;5.442;2023-02-28T12:48:50;4.82;;;1.90;;
73515;SDS011;61763;51.416;5.442;2023-02-28T12:51:21;1.60;;;0.85;;
73515;SDS011;61763;51.416;5.442;2023-02-28T12:56:17;2.95;;;1.65;;
73515;SDS011;61763;51.416;5.442;2023-02-28T12:58:56;2.40;;;1.48;;
73515;SDS011;61763;51.416;5.442;2023-02-28T13:06:44;1.80;;;0.95;;
73515;SDS011;61763;51.416;5.442;2023-02-28T13:09:17;2.17;;;0.70;;
73515;SDS011;61763;51.416;5.442;2023-02-28T13:11:47;3.92;;;0.43;;
73515;SDS011;61763;51.416;5.442;2023-02-28T13:14:23;3.38;;;1.98;;
73515;SDS011;61763;51.416;5.442;2023-02-28T13:19:35;2.30;;;1.23;;
73515;SDS011;61763;51.416;5.442;2023-02-28T13:22:05;3.33;;;2.67;;
73515;SDS011;61763;51.416;5.442;2023-02-28T13:24:47;2.00;;;1.10;;
73515;SDS011;61763;51.416;5.442;2023-02-28T13:29:50;4.25;;;1.92;;
73515;SDS011;61763;51.416;5.442;2023-02-28T13:32:28;1.73;;;0.52;;
73515;SDS011;61763;51.416;5.442;2023-02-28T13:39:58;3.78;;;0.77;;
73515;SDS011;61763;51.416;5.442;2023-02-28T13:42:50;2.60;;;1.40;;
73515;SDS011;61763;51.416;5.442;2023-02-28T13:48:04;4.05;;;1.90;;
73515;SDS011;61763;51.416;5.442;2023-02-28T13:50:40;2.13;;;1.10;;
73515;SDS011;61763;51.416;5.442;2023-02-28T14:01:35;2.05;;;0.90;;
73515;SDS011;61763;51.416;5.442;2023-02-28T14:07:07;2.72;;;1.15;;
73515;SDS011;61763;51.416;5.442;2023-02-28T14:15:41;1.08;;;0.60;;
73515;SDS011;61763;51.416;5.442;2023-02-28T14:29:00;3.05;;;1.60;;
73515;SDS011;61763;51.416;5.442;2023-02-28T14:37:09;4.47;;;0.82;;
73515;SDS011;61763;51.416;5.442;2023-02-28T14:39:42;4.43;;;1.63;;
73515;SDS011;61763;51.416;5.442;2023-02-28T14:44:56;2.85;;;0.85;;
73515;SDS011;61763;51.416;5.442;2023-02-28T14:47:21;4.55;;;1.88;;
73515;SDS011;61763;51.416;5.442;2023-02-28T14:49:52;4.75;;;2.10;;
73515;SDS011;61763;51.416;5.442;2023-02-28T14:52:20;4.72;;;1.27;;
73515;SDS011;61763;51.416;5.442;2023-02-28T14:54:51;1.75;;;0.77;;
73515;SDS011;61763;51.416;5.442;2023-02-28T14:57:26;1.05;;;0.60;;
73515;SDS011;61763;51.416;5.442;2023-02-28T15:00:13;5.85;;;1.73;;
73515;SDS011;61763;51.416;5.442;2023-02-28T15:02:46;1.27;;;0.43;;
73515;SDS011;61763;51.416;5.442;2023-02-28T15:07:46;2.58;;;1.17;;
73515;SDS011;61763;51.416;5.442;2023-02-28T15:10:20;2.83;;;1.27;;
73515;SDS011;61763;51.416;5.442;2023-02-28T15:18:06;3.63;;;1.77;;
73515;SDS011;61763;51.416;5.442;2023-02-28T15:20:35;2.65;;;1.10;;
73515;SDS011;61763;51.416;5.442;2023-02-28T15:23:04;2.80;;;1.73;;
73515;SDS011;61763;51.416;5.442;2023-02-28T15:25:30;3.85;;;2.08;;
73515;SDS011;61763;51.416;5.442;2023-02-28T15:27:56;2.78;;;0.82;;
73515;SDS011;61763;51.416;5.442;2023-02-28T15:30:26;2.50;;;0.82;;
73515;SDS011;61763;51.416;5.442;2023-02-28T15:35:51;5.35;;;1.80;;
73515;SDS011;61763;51.416;5.442;2023-02-28T15:38:32;3.33;;;2.08;;
73515;SDS011;61763;51.416;5.442;2023-02-28T15:40:59;2.97;;;0.90;;
73515;SDS011;61763;51.416;5.442;2023-02-28T15:43:29;5.57;;;1.77;;
73515;SDS011;61763;51.416;5.442;2023-02-28T15:45:56;3.50;;;1.13;;
73515;SDS011;61763;51.416;5.442;2023-02-28T15:53:50;2.15;;;1.55;;
73515;SDS011;61763;51.416;5.442;2023-02-28T15:56:27;3.20;;;1.08;;
73515;SDS011;61763;51.416;5.442;2023-02-28T15:59:01;2.53;;;1.45;;
73515;SDS011;61763;51.416;5.442;2023-02-28T16:01:32;3.75;;;0.57;;
73515;SDS011;61763;51.416;5.442;2023-02-28T16:04:04;2.95;;;0.80;;
73515;SDS011;61763;51.416;5.442;2023-02-28T16:06:33;2.63;;;1.15;;
73515;SDS011;61763;51.416;5.442;2023-02-28T16:09:02;2.67;;;0.68;;
73515;SDS011;61763;51.416;5.442;2023-02-28T16:11:28;3.05;;;0.77;;
73515;SDS011;61763;51.416;5.442;2023-02-28T16:13:55;2.75;;;1.20;;
73515;SDS011;61763;51.416;5.442;2023-02-28T16:16:23;2.17;;;1.02;;
73515;SDS011;61763;51.416;5.442;2023-02-28T16:18:50;3.45;;;0.77;;
73515;SDS011;61763;51.416;5.442;2023-02-28T16:21:16;3.38;;;1.60;;
73515;SDS011;61763;51.416;5.442;2023-02-28T16:23:41;3.25;;;1.55;;
73515;SDS011;61763;51.416;5.442;2023-02-28T16:26:07;4.05;;;1.95;;
73515;SDS011;61763;51.416;5.442;2023-02-28T16:28:37;3.15;;;1.20;;
73515;SDS011;61763;51.416;5.442;2023-02-28T16:31:04;4.00;;;2.05;;
73515;SDS011;61763;51.416;5.442;2023-02-28T16:33:31;3.00;;;1.65;;
73515;SDS011;61763;51.416;5.442;2023-02-28T16:35:57;5.85;;;2.03;;
73515;SDS011;61763;51.416;5.442;2023-02-28T16:38:24;3.67;;;2.03;;
73515;SDS011;61763;51.416;5.442;2023-02-28T16:40:50;4.07;;;1.50;;
73515;SDS011;61763;51.416;5.442;2023-02-28T16:43:20;3.60;;;1.13;;
73515;SDS011;61763;51.416;5.442;2023-02-28T16:45:56;1.30;;;0.70;;
73515;SDS011;61763;51.416;5.442;2023-02-28T16:48:27;5.32;;;1.52;;
73515;SDS011;61763;51.416;5.442;2023-02-28T16:50:52;3.53;;;1.20;;
73515;SDS011;61763;51.416;5.442;2023-02-28T16:53:18;2.65;;;0.90;;
73515;SDS011;61763;51.416;5.442;2023-02-28T16:55:43;3.50;;;2.00;;
73515;SDS011;61763;51.416;5.442;2023-02-28T16:58:12;2.65;;;1.08;;
73515;SDS011;61763;51.416;5.442;2023-02-28T17:00:39;4.43;;;2.50;;
73515;SDS011;61763;51.416;5.442;2023-02-28T17:03:05;13.75;;;8.15;;
73515;SDS011;61763;51.416;5.442;2023-02-28T17:05:35;16.98;;;8.57;;
73515;SDS011;61763;51.416;5.442;2023-02-28T17:08:04;11.52;;;5.28;;
73515;SDS011;61763;51.416;5.442;2023-02-28T17:10:30;8.63;;;3.60;;
73515;SDS011;61763;51.416;5.442;2023-02-28T17:12:55;6.00;;;3.38;;
73515;SDS011;61763;51.416;5.442;2023-02-28T17:15:22;2.30;;;0.85;;
73515;SDS011;61763;51.416;5.442;2023-02-28T17:17:48;4.63;;;2.08;;
73515;SDS011;61763;51.416;5.442;2023-02-28T17:20:14;3.60;;;1.25;;
73515;SDS011;61763;51.416;5.442;2023-02-28T17:22:41;4.15;;;1.73;;
73515;SDS011;61763;51.416;5.442;2023-02-28T17:25:07;3.47;;;1.33;;
73515;SDS011;61763;51.416;5.442;2023-02-28T17:27:33;3.95;;;2.05;;
73515;SDS011;61763;51.416;5.442;2023-02-28T17:29:59;2.88;;;1.20;;
73515;SDS011;61763;51.416;5.442;2023-02-28T17:32:27;6.45;;;1.40;;
73515;SDS011;61763;51.416;5.442;2023-02-28T17:34:53;5.07;;;2.83;;
73515;SDS011;61763;51.416;5.442;2023-02-28T17:37:19;2.97;;;2.08;;
73515;SDS011;61763;51.416;5.442;2023-02-28T17:39:45;2.95;;;1.75;;
73515;SDS011;61763;51.416;5.442;2023-02-28T17:42:11;3.78;;;1.92;;
73515;SDS011;61763;51.416;5.442;2023-02-28T17:44:37;3.50;;;1.00;;
73515;SDS011;61763;51.416;5.442;2023-02-28T17:47:02;3.53;;;1.60;;
73515;SDS011;61763;51.416;5.442;2023-02-28T17:49:28;3.05;;;1.15;;
73515;SDS011;61763;51.416;5.442;2023-02-28T17:51:54;3.03;;;1.02;;
73515;SDS011;61763;51.416;5.442;2023-02-28T17:54:20;6.53;;;2.53;;
73515;SDS011;61763;51.416;5.442;2023-02-28T17:56:46;4.75;;;1.48;;